Time;durP1;ratioP1;P1;durP2;ratioP2;P2;SDS_P1;SDS_P2;PMS_P1;PMS_P2;Temp;Humidity;BMP_temperature;BMP_pressure;BME280_temperature;BME280_humidity;BME280_pressure;Samples;Min_cycle;Max_cycle;Signal;HPM_P1;HPM_P2
2022/05/21 00:02:11;;;;;;;2.53;2.03;;;25.70;57.60;26.20;96706.00;;;;5055243;28;20197;-88
2022/05/21 00:04:41;;;;;;;3.77;2.23;;;25.60;58.50;26.10;96680.00;;;;5055281;28;20231;-87
2022/05/21 00:07:09;;;;;;;2.20;1.43;;;25.50;60.10;25.90;96752.00;;;;5057138;28;20773;-87
2022/05/21 00:09:36;;;;;;;2.50;1.97;;;25.40;60.80;25.80;96787.00;;;;5058389;28;20257;-87
2022/05/21 00:12:04;;;;;;;4.03;2.20;;;25.20;61.20;25.60;96778.00;;;;5057267;28;20669;-87
2022/05/21 00:14:34;;;;;;;2.53;2.30;;;25.10;61.60;25.50;96774.00;;;;5056764;28;20290;-88
2022/05/21 00:17:01;;;;;;;2.77;2.10;;;25.00;61.90;25.30;96754.00;;;;5055762;28;20343;-88
2022/05/21 00:19:28;;;;;;;4.03;2.53;;;24.80;62.00;25.20;96733.00;;;;5054925;28;20644;-87
2022/05/21 00:21:55;;;;;;;2.80;2.47;;;24.70;62.60;25.10;96733.00;;;;5055040;28;20208;-87
2022/05/21 00:24:22;;;;;;;3.23;2.23;;;24.60;63.30;25.00;96765.00;;;;5054646;28;20211;-88
2022/05/21 00:26:49;;;;;;;2.83;2.30;;;24.40;63.50;24.90;96774.00;;;;5054234;28;20693;-88
2022/05/21 00:29:20;;;;;;;2.27;2.07;;;24.30;64.30;24.90;96778.00;;;;5073957;28;20196;-87
2022/05/21 00:31:49;;;;;;;2.53;2.33;;;24.30;64.70;24.80;96772.00;;;;5074399;28;20602;-87
2022/05/21 00:34:16;;;;;;;5.13;2.53;;;24.20;65.00;24.70;96769.00;;;;5074515;28;20284;-87
2022/05/21 00:36:43;;;;;;;2.83;2.40;;;24.10;65.30;24.70;96782.00;;;;5074457;28;20226;-89
2022/05/21 00:39:10;;;;;;;2.97;2.57;;;24.00;65.40;24.60;96777.00;;;;5068115;28;20200;-87
2022/05/21 00:41:38;;;;;;;2.87;2.43;;;24.00;65.80;24.60;96773.00;;;;5068777;28;20204;-88
2022/05/21 00:44:07;;;;;;;4.10;2.50;;;23.90;65.90;24.50;96769.00;;;;5074595;28;20553;-89
2022/05/21 00:46:40;;;;;;;5.80;2.60;;;23.90;66.60;24.50;96781.00;;;;5074328;28;20591;-87
2022/05/21 00:49:14;;;;;;;2.70;2.50;;;23.80;66.80;24.40;96787.00;;;;5049299;28;20212;-87
2022/05/21 00:51:49;;;;;;;3.10;2.50;;;23.80;67.10;24.40;96791.00;;;;5050877;28;20195;-88
2022/05/21 00:54:19;;;;;;;2.57;2.37;;;23.70;67.00;24.30;96797.00;;;;5053273;28;20189;-88
2022/05/21 00:56:51;;;;;;;2.80;2.53;;;23.70;67.30;24.30;96797.00;;;;5043764;28;20230;-88
2022/05/21 01:02:09;;;;;;;2.67;2.30;;;23.60;67.70;24.30;96802.00;;;;5053768;28;20184;-88
2022/05/21 01:04:38;;;;;;;2.57;2.37;;;23.60;68.00;24.30;96817.00;;;;5053991;28;20205;-89
2022/05/21 01:07:07;;;;;;;2.53;2.33;;;23.60;68.30;24.30;96824.00;;;;5053691;28;20307;-89
2022/05/21 01:09:39;;;;;;;5.33;2.43;;;23.60;68.30;24.30;96823.00;;;;5060956;28;20206;-89
2022/05/21 01:12:09;;;;;;;4.23;2.93;;;23.60;68.60;24.30;96805.00;;;;5073816;28;20250;-88
2022/05/21 01:14:38;;;;;;;4.17;2.53;;;23.50;69.20;24.20;96793.00;;;;5073329;28;20196;-89
2022/05/21 01:17:06;;;;;;;2.90;2.50;;;23.50;69.60;24.10;96789.00;;;;5073735;28;20212;-89
2022/05/21 01:19:33;;;;;;;3.07;2.77;;;23.40;69.70;24.10;96786.00;;;;5073553;28;20216;-88
2022/05/21 01:22:01;;;;;;;3.40;2.60;;;23.40;70.10;24.00;96780.00;;;;5073664;28;20749;-89
2022/05/21 01:24:30;;;;;;;4.10;2.47;;;23.40;70.70;24.00;96783.00;;;;5073465;28;20202;-89
2022/05/21 01:26:57;;;;;;;2.87;2.47;;;23.40;71.10;24.00;96781.00;;;;5073092;28;20224;-90
2022/05/21 01:29:30;;;;;;;2.53;2.13;;;23.30;71.00;23.90;96778.00;;;;5073474;28;20279;-89
2022/05/21 01:31:57;;;;;;;3.43;2.50;;;23.30;71.50;23.90;96780.00;;;;5073550;28;20207;-89
2022/05/21 01:34:26;;;;;;;3.00;2.70;;;23.20;70.90;23.90;96787.00;;;;5073400;28;20548;-88
2022/05/21 01:36:53;;;;;;;2.67;2.40;;;23.20;71.10;23.80;96789.00;;;;5073226;28;20262;-89
2022/05/21 01:39:20;;;;;;;3.53;2.50;;;23.20;72.00;23.80;96798.00;;;;5073292;28;20283;-88
2022/05/21 01:41:50;;;;;;;5.03;2.50;;;23.10;71.20;23.80;96800.00;;;;5073108;28;20207;-88
2022/05/21 01:47:02;;;;;;;3.73;2.20;;;23.10;72.40;23.70;96824.00;;;;5073112;28;20257;-88
2022/05/21 01:49:29;;;;;;;3.30;2.43;;;23.00;71.40;23.60;96824.00;;;;5072466;28;20218;-89
2022/05/21 01:51:57;;;;;;;2.70;2.50;;;23.00;71.30;23.60;96831.00;;;;5072902;28;20200;-89
2022/05/21 01:54:24;;;;;;;3.30;2.97;;;23.00;71.10;23.60;96831.00;;;;5072939;28;20200;-88
2022/05/21 01:56:52;;;;;;;2.77;2.57;;;22.90;71.00;23.50;96828.00;;;;5072724;28;20227;-88
2022/05/21 01:59:19;;;;;;;2.57;2.37;;;22.90;71.10;23.40;96831.00;;;;5072801;28;20198;-89
2022/05/21 02:01:48;;;;;;;3.40;2.97;;;22.80;71.20;23.40;96827.00;;;;5072651;28;20192;-88
2022/05/21 02:04:15;;;;;;;3.10;2.50;;;22.80;71.20;23.30;96825.00;;;;5073292;28;20206;-88
2022/05/21 02:06:43;;;;;;;4.10;2.90;;;22.80;71.30;23.30;96827.00;;;;5072615;28;20654;-89
2022/05/21 02:09:11;;;;;;;2.80;2.60;;;22.70;71.40;23.30;96832.00;;;;5072935;28;20199;-89
2022/05/21 02:11:39;;;;;;;3.27;2.97;;;22.70;71.50;23.30;96839.00;;;;5071793;28;20728;-89
2022/05/21 02:14:09;;;;;;;2.90;2.70;;;22.70;71.60;23.20;96836.00;;;;5052781;28;20196;-89
2022/05/21 02:16:37;;;;;;;2.90;2.60;;;22.60;71.60;23.20;96829.00;;;;5035496;28;20583;-88
2022/05/21 02:19:07;;;;;;;2.83;2.63;;;22.60;71.60;23.20;96845.00;;;;5032918;28;20575;-90
2022/05/21 02:21:37;;;;;;;4.53;3.10;;;22.60;71.70;23.10;96836.00;;;;5033003;28;20570;-89
2022/05/21 02:24:07;;;;;;;3.13;2.90;;;22.60;71.70;23.10;96837.00;;;;5032823;28;20177;-88
2022/05/21 02:26:36;;;;;;;2.77;2.57;;;22.50;71.70;23.10;96848.00;;;;5032545;28;20271;-89
2022/05/21 02:29:04;;;;;;;3.50;3.20;;;22.50;71.70;23.10;96828.00;;;;5032651;28;20198;-89
2022/05/21 02:31:32;;;;;;;2.80;2.60;;;22.50;71.80;23.10;96832.00;;;;5032863;28;20572;-89
2022/05/21 02:33:59;;;;;;;3.03;2.47;;;22.50;71.90;23.00;96840.00;;;;5032626;28;20199;-89
2022/05/21 02:41:52;;;;;;;3.00;2.63;;;22.40;71.60;23.00;96843.00;;;;5052492;28;20179;-88
2022/05/21 02:44:19;;;;;;;4.60;2.73;;;22.40;71.70;23.00;96828.00;;;;5052424;28;20204;-88
2022/05/21 02:46:48;;;;;;;2.60;2.40;;;22.40;71.70;22.90;96848.00;;;;5052184;28;20231;-88
2022/05/21 02:49:15;;;;;;;2.80;2.50;;;22.40;71.70;22.90;96846.00;;;;5052436;28;20204;-89
2022/05/21 02:51:42;;;;;;;2.63;2.40;;;22.40;71.50;22.90;96855.00;;;;5052544;28;20207;-88
2022/05/21 02:54:14;;;;;;;3.37;2.63;;;22.30;71.50;22.80;96855.00;;;;5052429;28;20208;-88
2022/05/21 02:56:45;;;;;;;3.60;2.70;;;22.30;71.60;22.80;96855.00;;;;5055594;28;20231;-88
2022/05/21 02:59:12;;;;;;;2.90;2.60;;;22.30;71.80;22.70;96853.00;;;;5056239;28;20181;-89
2022/05/21 03:01:40;;;;;;;3.03;2.83;;;22.20;71.60;22.70;96849.00;;;;5056290;28;20295;-90
2022/05/21 03:04:08;;;;;;;3.13;2.63;;;22.20;71.60;22.70;96847.00;;;;5047494;28;20276;-88
2022/05/21 03:06:39;;;;;;;2.60;2.40;;;22.10;71.70;22.60;96846.00;;;;5036075;28;20588;-89
2022/05/21 03:11:51;;;;;;;2.37;2.07;;;22.10;72.50;22.50;96849.00;;;;5036374;28;20193;-88
2022/05/21 03:14:18;;;;;;;3.23;2.80;;;22.00;71.70;22.50;96845.00;;;;5036345;28;20201;-88
2022/05/21 03:16:45;;;;;;;3.43;2.67;;;22.00;71.60;22.40;96851.00;;;;5036332;28;20248;-88
2022/05/21 03:19:14;;;;;;;2.40;2.20;;;21.90;71.70;22.30;96848.00;;;;5036850;28;20214;-88
2022/05/21 03:21:41;;;;;;;2.60;2.20;;;22.00;71.90;22.30;96846.00;;;;5039174;28;20284;-88
2022/05/21 03:24:09;;;;;;;2.97;2.77;;;21.80;71.70;22.20;96855.00;;;;5038162;28;20667;-89
2022/05/21 03:26:36;;;;;;;3.40;2.20;;;21.80;71.80;22.20;96858.00;;;;5037203;28;20229;-89
2022/05/21 03:29:03;;;;;;;2.90;2.33;;;21.80;71.70;22.20;96859.00;;;;5037899;28;20283;-88
2022/05/21 03:31:30;;;;;;;2.60;2.40;;;21.70;71.60;22.10;96856.00;;;;5036423;28;20691;-89
2022/05/21 03:33:57;;;;;;;2.37;2.17;;;21.60;72.30;22.10;96852.00;;;;5036716;28;20280;-87
2022/05/21 03:36:26;;;;;;;2.73;2.30;;;21.60;71.70;22.00;96853.00;;;;5036114;28;20231;-88
2022/05/21 03:38:55;;;;;;;2.63;2.43;;;21.60;71.80;22.00;96859.00;;;;5036283;28;20218;-88
2022/05/21 03:41:22;;;;;;;2.67;2.20;;;21.50;71.70;22.00;96867.00;;;;5035715;28;20209;-89
2022/05/21 03:43:50;;;;;;;3.87;2.00;;;21.50;71.60;21.90;96871.00;;;;5035671;28;20197;-88
2022/05/21 03:46:17;;;;;;;1.93;1.83;;;21.50;71.60;21.90;96886.00;;;;5035467;28;20221;-88
2022/05/21 03:48:44;;;;;;;2.63;2.23;;;21.40;71.70;21.90;96874.00;;;;5035414;28;20211;-88
2022/05/21 03:51:11;;;;;;;2.40;2.20;;;21.40;71.70;21.80;96885.00;;;;5035624;28;20204;-88
2022/05/21 03:53:40;;;;;;;2.87;2.00;;;21.40;71.70;21.80;96892.00;;;;5035396;28;20203;-87
2022/05/21 03:56:08;;;;;;;1.97;1.80;;;21.30;71.60;21.80;96895.00;;;;5043879;28;20219;-88
2022/05/21 03:58:35;;;;;;;3.43;1.97;;;21.30;71.50;21.70;96891.00;;;;5055512;28;20197;-87
2022/05/21 04:01:02;;;;;;;2.67;2.20;;;21.30;71.50;21.70;96899.00;;;;5055240;28;20684;-88
2022/05/21 04:03:30;;;;;;;2.00;1.80;;;21.30;71.60;21.70;96899.00;;;;5055276;28;20201;-87
2022/05/21 04:05:58;;;;;;;2.37;2.27;;;21.20;71.50;21.70;96898.00;;;;5054932;28;20274;-88
2022/05/21 04:08:26;;;;;;;1.80;1.70;;;21.20;71.40;21.70;96897.00;;;;5054321;28;20197;-88
2022/05/21 04:10:54;;;;;;;2.03;1.90;;;21.20;71.40;21.60;96908.00;;;;5054910;28;20211;-87
2022/05/21 04:13:22;;;;;;;2.53;2.33;;;21.10;71.30;21.60;96906.00;;;;5054799;28;20207;-87
2022/05/21 04:15:49;;;;;;;1.83;1.70;;;21.10;71.40;21.60;96916.00;;;;5054971;28;20212;-85
2022/05/21 04:18:18;;;;;;;3.27;2.00;;;21.10;71.60;21.60;96905.00;;;;5054493;28;20681;-86
2022/05/21 04:20:46;;;;;;;2.50;2.30;;;21.00;71.70;21.50;96904.00;;;;5055131;28;20201;-85
2022/05/21 04:23:13;;;;;;;1.97;1.87;;;21.00;71.60;21.50;96913.00;;;;5054610;28;20224;-86
2022/05/21 04:25:40;;;;;;;1.93;1.83;;;21.00;71.90;21.50;96916.00;;;;5042273;28;20222;-86
2022/05/21 04:28:09;;;;;;;3.30;2.13;;;21.00;72.60;21.50;96919.00;;;;5042731;28;20220;-86
2022/05/21 04:30:36;;;;;;;2.40;2.30;;;21.00;72.20;21.40;96928.00;;;;5072973;28;20587;-85
2022/05/21 04:33:03;;;;;;;2.03;1.83;;;21.00;72.30;21.50;96933.00;;;;5054403;28;20205;-86
2022/05/21 04:36:17;;;;;;;2.57;2.10;;;20.90;72.30;21.40;96940.00;;;;5054697;28;20233;-86
2022/05/21 04:38:18;;;;;;;2.30;2.10;;;20.90;72.40;21.40;96943.00;;;;5052090;28;20200;-85
2022/05/21 04:40:45;;;;;;;2.57;2.37;;;20.90;72.40;21.40;96946.00;;;;5053179;28;20654;-85
2022/05/21 04:43:13;;;;;;;2.23;1.97;;;20.90;72.60;21.40;96946.00;;;;5051547;28;20209;-86
2022/05/21 04:45:41;;;;;;;2.40;2.20;;;20.90;72.70;21.40;96947.00;;;;5050752;28;20216;-86
2022/05/21 04:48:10;;;;;;;2.47;2.30;;;20.90;72.80;21.40;96962.00;;;;5038938;28;20315;-87
2022/05/21 04:50:39;;;;;;;3.63;1.97;;;20.80;73.00;21.40;96958.00;;;;5053484;28;20209;-86
2022/05/21 04:53:07;;;;;;;2.20;2.10;;;20.90;73.10;21.40;96956.00;;;;5053574;28;20221;-86
2022/05/21 04:55:34;;;;;;;2.73;2.10;;;20.90;73.00;21.40;96961.00;;;;5041726;28;20224;-86
2022/05/21 04:58:01;;;;;;;2.87;1.80;;;20.80;72.90;21.40;96972.00;;;;5052484;28;20604;-86
2022/05/21 05:00:30;;;;;;;1.97;1.83;;;20.80;72.60;21.30;96965.00;;;;5053865;28;20197;-86
2022/05/21 05:02:59;;;;;;;2.20;1.83;;;20.80;72.70;21.30;96965.00;;;;5033914;28;20201;-86
2022/05/21 05:05:27;;;;;;;2.63;1.97;;;20.80;72.70;21.30;96969.00;;;;5034246;28;20209;-86
2022/05/21 05:07:54;;;;;;;1.80;1.70;;;20.80;72.60;21.40;96970.00;;;;5041646;28;20213;-86
2022/05/21 05:10:21;;;;;;;2.77;1.97;;;20.80;73.40;21.40;96975.00;;;;5053373;28;20207;-85
2022/05/21 05:12:48;;;;;;;2.47;1.97;;;20.80;72.60;21.40;96977.00;;;;5053400;28;20231;-88
2022/05/21 05:15:15;;;;;;;2.03;1.83;;;20.90;72.60;21.40;96980.00;;;;5053878;28;20231;-89
2022/05/21 05:17:43;;;;;;;1.97;1.87;;;20.70;72.60;21.50;96977.00;;;;5053533;28;20209;-89
2022/05/21 05:20:11;;;;;;;2.63;1.97;;;20.80;73.10;21.60;96974.00;;;;5061311;28;20192;-88
2022/05/21 05:22:38;;;;;;;2.23;2.00;;;20.90;73.10;21.60;96979.00;;;;5054051;28;20223;-89
2022/05/21 05:25:07;;;;;;;2.20;2.00;;;20.90;72.70;21.70;96981.00;;;;5052951;28;20315;-88
2022/05/21 05:27:34;;;;;;;1.73;1.63;;;21.00;72.40;21.70;96981.00;;;;5055756;28;20223;-89
2022/05/21 05:30:02;;;;;;;1.93;1.70;;;20.90;72.10;21.70;96978.00;;;;5064273;28;20204;-89
2022/05/21 05:32:29;;;;;;;1.80;1.70;;;21.00;72.00;21.70;96976.00;;;;5053353;28;20208;-90
2022/05/21 05:34:57;;;;;;;2.00;1.90;;;21.00;72.40;21.70;96977.00;;;;5052796;28;20199;-90
2022/05/21 05:37:24;;;;;;;1.57;1.47;;;21.10;71.40;21.70;96986.00;;;;5053058;28;20292;-90
2022/05/21 05:39:51;;;;;;;2.17;1.80;;;21.10;71.30;21.70;96987.00;;;;5052685;28;20204;-90
2022/05/21 05:42:19;;;;;;;2.70;2.10;;;21.00;71.20;21.70;96990.00;;;;5053211;28;20202;-89
2022/05/21 05:44:46;;;;;;;2.47;1.80;;;21.10;71.00;21.70;96986.00;;;;5051482;28;20185;-91
2022/05/21 05:47:13;;;;;;;2.63;2.27;;;21.10;70.70;21.60;96988.00;;;;5052857;28;20223;-90
2022/05/21 05:49:40;;;;;;;1.77;1.67;;;21.00;70.30;21.60;96988.00;;;;5052871;28;20573;-91
2022/05/21 05:52:09;;;;;;;2.20;2.00;;;21.00;70.20;21.60;96992.00;;;;5053417;28;20213;-91
2022/05/21 05:54:40;;;;;;;2.37;2.03;;;21.00;70.50;21.60;96996.00;;;;5049132;28;20203;-90
2022/05/21 05:57:11;;;;;;;2.27;1.70;;;21.00;70.50;21.50;96997.00;;;;5058298;28;20292;-91
2022/05/21 06:05:16;;;;;;;1.57;1.47;;;21.00;69.70;21.50;96990.00;;;;5052528;28;20226;-90
2022/05/21 06:07:47;;;;;;;1.97;1.77;;;21.00;69.80;21.60;97002.00;;;;5045655;28;20246;-89
2022/05/21 06:10:18;;;;;;;3.27;1.97;;;21.00;70.10;21.60;97010.00;;;;5049386;28;20231;-90
2022/05/21 06:12:45;;;;;;;2.00;1.90;;;21.10;70.20;21.70;97005.00;;;;5052352;28;20688;-90
2022/05/21 06:15:14;;;;;;;2.07;1.87;;;21.10;70.20;21.80;97009.00;;;;5052400;28;20303;-90
2022/05/21 06:17:52;;;;;;;1.73;1.40;;;21.20;70.10;21.90;97006.00;;;;5052423;28;20200;-89
2022/05/21 06:20:22;;;;;;;1.90;1.70;;;21.20;69.40;22.00;97010.00;;;;5051927;28;20208;-91
2022/05/21 06:22:51;;;;;;;1.63;1.53;;;21.20;69.40;22.00;97007.00;;;;5052409;28;20673;-91
2022/05/21 06:25:21;;;;;;;1.70;1.60;;;21.30;69.30;22.00;97012.00;;;;5052265;28;20223;-90
2022/05/21 06:27:51;;;;;;;2.00;1.50;;;21.30;68.80;22.00;97015.00;;;;5040989;28;20225;-89
2022/05/21 06:30:21;;;;;;;1.60;1.50;;;21.30;68.80;22.00;97017.00;;;;5049305;28;20816;-90
2022/05/21 06:32:49;;;;;;;2.93;1.67;;;21.30;68.20;22.00;97015.00;;;;5052369;28;20203;-90
2022/05/21 06:35:19;;;;;;;1.60;1.50;;;21.30;67.80;22.10;97022.00;;;;5052216;28;20303;-90
2022/05/21 06:37:47;;;;;;;1.87;1.50;;;21.40;67.80;22.10;97032.00;;;;5064558;28;20238;-90
2022/05/21 06:40:18;;;;;;;1.50;1.50;;;21.40;67.90;22.20;97035.00;;;;5072698;28;20200;-90
2022/05/21 06:42:46;;;;;;;1.70;1.60;;;21.40;67.60;22.20;97036.00;;;;5059771;28;20278;-90
2022/05/21 06:45:13;;;;;;;1.50;1.40;;;21.50;67.50;22.20;97039.00;;;;5052523;28;20591;-89
2022/05/21 06:47:40;;;;;;;1.50;1.40;;;21.50;67.10;22.20;97044.00;;;;5053322;28;20249;-90
2022/05/21 06:50:09;;;;;;;2.43;1.60;;;21.50;66.90;22.20;97051.00;;;;5053050;28;20234;-89
2022/05/21 06:52:39;;;;;;;1.63;1.40;;;21.50;66.90;22.20;97051.00;;;;5053061;28;20720;-89
2022/05/21 06:55:07;;;;;;;2.30;1.50;;;21.50;67.10;22.30;97051.00;;;;5053004;28;20217;-89
2022/05/21 06:57:35;;;;;;;1.40;1.30;;;21.60;67.00;22.30;97045.00;;;;5053473;28;20677;-89
2022/05/21 07:00:04;;;;;;;2.03;1.70;;;21.60;67.10;22.40;97047.00;;;;5047416;28;20200;-89
2022/05/21 07:02:31;;;;;;;2.00;1.60;;;21.60;67.00;22.40;97056.00;;;;5048652;28;20288;-89
2022/05/21 07:07:44;;;;;;;1.67;1.50;;;21.70;66.70;22.50;97053.00;;;;5052372;28;20266;-90
2022/05/21 07:10:18;;;;;;;2.90;1.40;;;21.70;66.40;22.60;97051.00;;;;5052011;28;20208;-89
2022/05/21 07:12:46;;;;;;;1.63;1.53;;;21.70;66.80;22.60;97062.00;;;;5044076;28;20200;-90
2022/05/21 07:15:15;;;;;;;1.50;1.40;;;21.80;66.40;22.70;97052.00;;;;5052136;28;20228;-90
2022/05/21 07:17:44;;;;;;;1.50;1.40;;;21.80;66.20;22.70;97056.00;;;;5052054;28;20215;-91
2022/05/21 07:20:16;;;;;;;1.63;1.53;;;21.90;65.80;22.80;97060.00;;;;5053192;28;20197;-93
2022/05/21 07:22:44;;;;;;;2.27;1.40;;;21.90;65.90;22.80;97057.00;;;;5052500;28;20205;-92
2022/05/21 07:25:13;;;;;;;1.60;1.50;;;22.00;65.80;23.00;97061.00;;;;5051622;28;20299;-90
2022/05/21 07:27:40;;;;;;;1.67;1.40;;;22.00;65.70;23.10;97064.00;;;;5050795;28;20220;-91
2022/05/21 07:30:11;;;;;;;1.53;1.43;;;22.10;65.80;23.20;97060.00;;;;5046983;28;20192;-91
2022/05/21 07:32:41;;;;;;;1.37;1.37;;;22.20;65.50;23.30;97061.00;;;;5051951;28;20204;-90
2022/05/21 07:35:12;;;;;;;1.90;1.53;;;22.30;66.20;23.40;97059.00;;;;5051371;28;20229;-90
2022/05/21 07:37:40;;;;;;;1.23;1.23;;;22.40;65.00;23.50;97045.00;;;;5063941;28;20276;-89
2022/05/21 07:40:11;;;;;;;1.80;1.50;;;22.50;64.80;23.70;97051.00;;;;5052689;28;20306;-90
2022/05/21 07:42:39;;;;;;;1.40;1.30;;;22.60;65.00;23.80;97049.00;;;;5053692;28;20212;-90
2022/05/21 07:45:11;;;;;;;1.40;1.30;;;22.70;65.20;24.00;97060.00;;;;5059904;28;20227;-90
2022/05/21 07:47:38;;;;;;;1.53;1.43;;;22.80;64.60;24.10;97061.00;;;;5059437;28;20340;-91
2022/05/21 07:50:07;;;;;;;1.60;1.47;;;23.00;63.80;24.20;97053.00;;;;5042599;28;20210;-90
2022/05/21 07:52:34;;;;;;;1.40;1.10;;;23.00;63.60;24.30;97046.00;;;;5035813;28;20710;-91
2022/05/21 07:55:02;;;;;;;1.50;1.40;;;23.10;63.70;24.50;97051.00;;;;5044868;28;20225;-92
2022/05/21 07:57:29;;;;;;;1.37;1.27;;;23.20;63.60;24.70;97052.00;;;;5054850;28;20203;-91
2022/05/21 07:59:56;;;;;;;2.40;1.50;;;23.40;63.60;25.00;97043.00;;;;5044794;28;20610;-92
2022/05/21 08:02:24;;;;;;;1.53;1.13;;;23.50;62.90;25.20;97046.00;;;;5053009;28;20281;-91
2022/05/21 08:04:52;;;;;;;1.13;1.07;;;23.60;62.20;25.30;97043.00;;;;5052120;28;20207;-91
2022/05/21 08:07:21;;;;;;;1.20;1.10;;;23.80;62.10;25.40;97042.00;;;;5059742;28;20236;-91
2022/05/21 08:09:48;;;;;;;0.90;0.90;;;23.90;61.40;25.50;97045.00;;;;5037524;28;20195;-91
2022/05/21 08:12:17;;;;;;;0.83;0.83;;;24.00;60.50;25.70;97041.00;;;;5052466;28;20318;-90
2022/05/21 08:14:44;;;;;;;0.90;0.90;;;24.20;60.50;26.00;97041.00;;;;5034872;28;20200;-92
2022/05/21 08:17:12;;;;;;;1.00;0.80;;;24.30;60.60;26.30;97037.00;;;;5051431;28;20261;-91
2022/05/21 08:19:42;;;;;;;0.70;0.70;;;24.40;59.30;26.60;97043.00;;;;5045548;28;20204;-91
2022/05/21 08:27:39;;;;;;;0.60;0.60;;;24.90;56.80;27.80;97045.00;;;;5013581;28;20216;-92
2022/05/21 08:30:07;;;;;;;0.63;0.60;;;25.20;57.30;28.10;97052.00;;;;5038683;28;20199;-92
2022/05/21 08:32:34;;;;;;;0.90;0.90;;;25.40;57.50;28.40;97059.00;;;;5051510;28;20291;-91
2022/05/21 08:35:04;;;;;;;0.77;0.77;;;25.60;57.00;28.60;97055.00;;;;5045841;28;20223;-91
2022/05/21 08:37:33;;;;;;;0.80;0.80;;;25.80;56.30;28.90;97050.00;;;;5052767;28;20208;-92
2022/05/21 08:40:01;;;;;;;1.30;0.70;;;26.00;56.20;29.30;97057.00;;;;5036087;28;20205;-91
2022/05/21 08:42:34;;;;;;;0.60;0.60;;;26.30;56.10;29.70;97055.00;;;;5053017;28;20220;-92
2022/05/21 08:45:17;;;;;;;0.93;0.73;;;26.50;55.80;30.10;97051.00;;;;5048546;28;20220;-91
2022/05/21 08:47:56;;;;;;;0.90;0.70;;;26.80;54.10;30.30;97056.00;;;;5053328;28;20226;-91
2022/05/21 08:50:27;;;;;;;0.70;0.70;;;27.10;54.50;30.50;97054.00;;;;5041044;28;20228;-91
2022/05/21 08:53:02;;;;;;;0.68;0.68;;;27.30;54.30;30.90;97053.00;;;;5048111;28;20576;-91
2022/05/21 08:55:33;;;;;;;0.80;0.80;;;27.50;53.80;31.30;97048.00;;;;5040357;28;20422;-90
2022/05/21 08:58:09;;;;;;;1.45;0.60;;;27.90;53.50;31.60;97054.00;;;;5052624;28;20215;-91
2022/05/21 09:00:42;;;;;;;0.70;0.70;;;28.20;53.30;31.90;97049.00;;;;5050733;28;20196;-91
2022/05/21 09:03:14;;;;;;;0.63;0.47;;;28.50;52.50;32.00;97048.00;;;;5048709;28;20543;-92
2022/05/21 09:05:50;;;;;;;0.43;0.43;;;28.80;51.90;32.00;97050.00;;;;5052582;28;20216;-91
2022/05/21 09:08:30;;;;;;;1.23;0.80;;;29.00;50.70;32.10;97053.00;;;;5053667;28;20320;-91
2022/05/21 09:11:03;;;;;;;0.73;0.70;;;29.20;49.90;32.30;97056.00;;;;5053481;28;20192;-91
2022/05/21 09:13:41;;;;;;;0.40;0.40;;;29.50;49.90;32.50;97050.00;;;;5054036;28;20188;-91
2022/05/21 09:18:57;;;;;;;0.43;0.43;;;30.20;49.00;33.10;97053.00;;;;5050440;28;20208;-91
2022/05/21 09:21:29;;;;;;;0.50;0.50;;;30.60;48.70;33.40;97041.00;;;;5053806;28;20208;-92
2022/05/21 09:23:59;;;;;;;1.45;0.77;;;31.00;47.30;33.70;97040.00;;;;5053873;28;20201;-91
2022/05/21 09:26:31;;;;;;;0.32;0.32;;;31.40;45.30;33.90;97062.00;;;;5052248;28;20217;-90
2022/05/21 09:29:18;;;;;;;0.50;0.50;;;31.70;44.60;34.00;97049.00;;;;5052498;28;20213;-92
2022/05/21 09:31:46;;;;;;;0.85;0.43;;;32.10;44.00;34.20;97041.00;;;;5052793;28;20227;-91
2022/05/21 09:34:23;;;;;;;0.70;0.70;;;32.40;44.70;34.40;97048.00;;;;5053920;28;20204;-90
2022/05/21 09:36:52;;;;;;;0.40;0.40;;;32.80;43.60;34.70;97045.00;;;;5039623;28;20225;-91
2022/05/21 09:39:36;;;;;;;0.40;0.40;;;33.10;43.70;34.90;97043.00;;;;5043286;28;20260;-91
2022/05/21 09:45:22;;;;;;;0.40;0.40;;;33.50;42.50;35.10;97048.00;;;;5061690;28;20208;-90
2022/05/21 09:45:23;;;;;;;0.40;0.40;;;33.90;40.00;35.20;97056.00;;;;5072555;28;20224;-90
2022/05/21 09:47:51;;;;;;;0.30;0.30;;;34.20;40.90;35.30;97051.00;;;;5055137;28;20216;-92
2022/05/21 09:50:24;;;;;;;0.20;0.20;;;34.50;40.70;35.40;97043.00;;;;5054759;28;20241;-91
2022/05/21 09:52:53;;;;;;;1.38;0.50;;;34.80;40.10;35.50;97038.00;;;;5054695;28;20614;-91
2022/05/21 09:55:25;;;;;;;0.73;0.35;;;35.00;40.30;35.60;97044.00;;;;5043764;28;20225;-91
2022/05/21 09:57:54;;;;;;;0.30;0.25;;;35.30;40.20;35.70;97050.00;;;;5047458;28;20219;-91
2022/05/21 10:00:28;;;;;;;0.57;0.30;;;35.60;40.30;35.80;97050.00;;;;5035276;28;20225;-91
2022/05/21 10:02:58;;;;;;;0.40;0.40;;;35.80;39.20;35.80;97042.00;;;;5034835;28;20201;-91
2022/05/21 10:05:35;;;;;;;0.30;0.30;;;36.00;38.60;35.80;97051.00;;;;5033416;28;20237;-91
2022/05/21 10:11:00;;;;;;;0.57;0.40;;;36.20;37.60;35.70;97052.00;;;;5053597;28;20184;-91
2022/05/21 10:13:36;;;;;;;0.52;0.52;;;36.40;37.70;35.70;97043.00;;;;5053222;28;20761;-91
2022/05/21 10:16:25;;;;;;;0.60;0.30;;;36.40;36.90;35.70;97043.00;;;;5071378;22;20227;-82
2022/05/21 10:19:02;;;;;;;0.47;0.30;;;36.50;36.70;35.60;97035.00;;;;5091772;28;20244;-83
2022/05/21 10:21:49;;;;;;;0.30;0.30;;;36.50;36.40;35.40;97044.00;;;;5103380;28;20190;-82
2022/05/21 10:24:32;;;;;;;1.00;0.40;;;36.50;35.60;35.20;97040.00;;;;5092516;28;20542;-82
2022/05/21 10:27:12;;;;;;;0.57;0.47;;;36.30;34.90;35.00;97046.00;;;;5072641;28;20219;-82
2022/05/21 10:30:07;;;;;;;0.30;0.30;;;36.20;35.00;34.80;97034.00;;;;5072109;28;20204;-83
2022/05/21 10:33:00;;;;;;;1.23;0.30;;;36.10;34.00;34.50;97032.00;;;;5083144;28;20202;-82
2022/05/21 10:35:43;;;;;;;0.95;0.38;;;35.90;33.70;34.20;97035.00;;;;5091485;28;20219;-82
2022/05/21 10:38:25;;;;;;;0.47;0.30;;;35.70;34.20;34.00;97025.00;;;;5092031;28;20187;-82
2022/05/21 10:41:00;;;;;;;0.30;0.30;;;35.40;34.20;33.70;97028.00;;;;5073195;28;20282;-82
2022/05/21 10:43:58;;;;;;;0.20;0.20;;;35.20;35.00;33.50;97019.00;;;;5072736;28;20188;-82
2022/05/21 10:46:37;;;;;;;0.20;0.20;;;35.00;34.50;33.40;97024.00;;;;5052816;28;20455;-82
2022/05/21 10:49:34;;;;;;;0.40;0.40;;;34.70;34.60;33.30;97017.00;;;;5084564;28;20218;-83
2022/05/21 10:52:11;;;;;;;0.55;0.50;;;34.50;34.50;33.20;97017.00;;;;5073506;28;20188;-82
2022/05/21 10:54:57;;;;;;;0.75;0.40;;;34.20;35.10;33.00;97010.00;;;;5076290;28;20191;-82
2022/05/21 10:57:47;;;;;;;1.02;0.45;;;33.90;35.00;32.80;97027.00;;;;5084035;28;20188;-83
2022/05/21 11:00:20;;;;;;;0.30;0.30;;;33.50;35.80;32.50;97024.00;;;;5081683;28;20189;-82
2022/05/21 11:03:41;;;;;;;0.77;0.30;;;33.10;35.70;32.10;97013.00;;;;5072788;28;20196;-82
2022/05/21 11:06:37;;;;;;;0.52;0.30;;;32.70;35.50;31.80;97010.00;;;;5071409;28;20231;-84
2022/05/21 11:09:21;;;;;;;0.30;0.30;;;32.20;35.00;31.50;97010.00;;;;5079873;28;20245;-84
2022/05/21 11:12:01;;;;;;;0.40;0.40;;;31.70;36.20;31.10;97010.00;;;;5075019;28;20203;-83
2022/05/21 11:14:41;;;;;;;0.90;0.73;;;31.30;36.20;30.80;96996.00;;;;5072129;28;20184;-83
2022/05/21 11:17:35;;;;;;;0.68;0.55;;;31.00;36.30;30.50;97003.00;;;;5072418;28;20223;-81
2022/05/21 11:20:13;;;;;;;0.45;0.20;;;30.50;36.00;30.10;96992.00;;;;5076989;28;20203;-82
2022/05/21 11:22:53;;;;;;;0.95;0.63;;;30.20;36.60;29.80;96997.00;;;;5077657;28;20202;-82
2022/05/21 11:25:27;;;;;;;0.50;0.35;;;29.80;37.70;29.50;96991.00;;;;5086960;28;20302;-82
2022/05/21 11:28:09;;;;;;;0.52;0.52;;;29.40;37.20;29.30;96977.00;;;;5084222;28;20684;-84
2022/05/21 11:30:38;;;;;;;0.50;0.50;;;29.10;37.40;29.00;96974.00;;;;5088041;28;20274;-83
2022/05/21 11:39:05;;;;;;;0.30;0.30;;;28.30;38.30;28.30;96971.00;;;;5019183;28;20292;-84
2022/05/21 11:42:14;;;;;;;0.40;0.40;;;28.00;38.60;28.10;96969.00;;;;5073070;28;20200;-83
2022/05/21 11:44:59;;;;;;;0.20;0.20;;;27.80;39.40;28.00;96965.00;;;;5074443;28;20253;-84
2022/05/21 11:47:50;;;;;;;0.37;0.37;;;27.70;39.70;27.90;96972.00;;;;5078549;28;20203;-85
2022/05/21 11:50:31;;;;;;;0.30;0.30;;;27.50;39.90;27.90;96964.00;;;;5085807;28;20296;-84
2022/05/21 11:53:22;;;;;;;0.30;0.30;;;27.40;40.40;27.80;96958.00;;;;5085346;28;20199;-83